createdAt,value
2023-04-05T00:01:08.647Z,99304.34
2023-04-05T00:03:10.270Z,99305.38
2023-04-05T00:05:12.442Z,99303.75
2023-04-05T00:07:13.856Z,99300.41
2023-04-05T00:09:15.340Z,99287.88
2023-04-05T00:11:17.679Z,99291.63
2023-04-05T00:13:20.885Z,99295.41
2023-04-05T00:15:26.541Z,99288.53
2023-04-05T00:17:34.382Z,99287.69
2023-04-05T00:19:40.815Z,99288.72
2023-04-05T00:21:42.511Z,99283.72
2023-04-05T00:23:45.129Z,99284.19
2023-04-05T00:25:47.126Z,99277.69
2023-04-05T00:27:48.616Z,99275.81
2023-04-05T00:29:55.575Z,99280.41
2023-04-05T00:32:02.932Z,99273.31
2023-04-05T00:34:06.014Z,99276.25
2023-04-05T00:36:20.457Z,99267.50
2023-04-05T00:38:25.959Z,99266.03
2023-04-05T00:40:27.760Z,99271.69
2023-04-05T00:42:30.604Z,99263.75
2023-04-05T00:44:38.817Z,99263.97
2023-04-05T00:46:41.943Z,99261.44
2023-04-05T00:48:43.862Z,99261.69
2023-04-05T00:50:49.098Z,99260.00
2023-04-05T00:52:51.942Z,99257.53
2023-04-05T00:54:56.821Z,99257.75
2023-04-05T00:56:59.875Z,99254.38
2023-04-05T00:59:01.755Z,99255.66
2023-04-05T01:01:18.621Z,99251.91
2023-04-05T01:03:26.221Z,99247.75
2023-04-05T01:05:40.320Z,99245.44
2023-04-05T01:07:53.263Z,99243.56
2023-04-05T01:10:00.351Z,99246.72
2023-04-05T01:12:06.806Z,99236.28
2023-04-05T01:14:09.511Z,99238.81
2023-04-05T01:16:11.817Z,99242.78
2023-04-05T01:18:14.290Z,99243.81
2023-04-05T01:20:15.831Z,99225.25
2023-04-05T01:22:40.395Z,99226.31
2023-04-05T01:25:10.989Z,99229.22
2023-04-05T01:27:22.674Z,99216.31
2023-04-05T01:30:04.023Z,99222.78
2023-04-05T01:32:39.268Z,99223.22
2023-04-05T01:34:51.976Z,99227.19
2023-04-05T01:37:06.017Z,99209.25
2023-04-05T01:39:11.493Z,99219.47
2023-04-05T01:41:13.331Z,99211.75
2023-04-05T01:43:17.981Z,99212.81
2023-04-05T01:45:19.710Z,99205.09
2023-04-05T01:47:21.753Z,99211.56
2023-04-05T01:49:24.321Z,99215.53
2023-04-05T01:51:26.437Z,99207.63
2023-04-05T01:53:27.874Z,99214.28
2023-04-05T01:55:29.557Z,99214.28
2023-04-05T01:57:31.178Z,99204.72
2023-04-05T01:59:34.061Z,99211.16
2023-04-05T02:01:37.950Z,99210.56
2023-04-05T02:03:42.143Z,99216.19
2023-04-05T02:05:49.767Z,99211.81
2023-04-05T02:07:51.371Z,99223.69
2023-04-05T02:09:54.992Z,99223.91
2023-04-05T02:11:56.672Z,99222.03
2023-04-05T02:13:58.421Z,99217.66
2023-04-05T02:16:00.240Z,99221.41
2023-04-05T02:18:03.955Z,99216.19
2023-04-05T02:20:07.863Z,99220.75
2023-04-05T02:22:09.410Z,99218.50
2023-04-05T02:24:13.538Z,99217.66
2023-04-05T02:26:15.430Z,99213.91
2023-04-05T02:28:16.942Z,99219.53
2023-04-05T02:30:18.532Z,99214.94
2023-04-05T02:32:21.130Z,99208.91
2023-04-05T02:34:23.037Z,99208.91
2023-04-05T02:36:28.241Z,99207.84
2023-04-05T02:38:29.739Z,99203.50
2023-04-05T02:40:34.082Z,99203.50
2023-04-05T02:42:38.803Z,99203.91
2023-04-05T02:44:40.587Z,99203.06
2023-04-05T02:46:48.437Z,99203.06
2023-04-05T02:48:49.956Z,99203.06
2023-04-05T02:50:56.024Z,99200.38
2023-04-05T02:52:57.566Z,99200.59
2023-04-05T02:54:59.625Z,99199.75
2023-04-05T02:57:05.249Z,99201.63
2023-04-05T02:59:20.634Z,99197.22
2023-04-05T03:01:22.825Z,99199.31
2023-04-05T03:03:24.675Z,99197.69
2023-04-05T03:05:26.257Z,99199.56
2023-04-05T03:07:28.266Z,99203.28
2023-04-05T03:09:33.647Z,99197.88
2023-04-05T03:11:40.885Z,99196.00
2023-04-05T03:13:45.372Z,99196.00
2023-04-05T03:15:55.133Z,99199.97
2023-04-05T03:17:58.656Z,99198.94
2023-04-05T03:20:00.872Z,99197.03
2023-04-05T03:22:02.694Z,99195.38
2023-04-05T03:24:08.296Z,99199.97
2023-04-05T03:26:16.692Z,99202.06
2023-04-05T03:28:24.487Z,99200.19
2023-04-05T03:30:29.538Z,99192.25
2023-04-05T03:32:37.464Z,99190.78
2023-04-05T03:34:47.995Z,99187.47
2023-04-05T03:36:51.423Z,99192.47
2023-04-05T03:39:02.564Z,99201.22
2023-04-05T03:41:04.327Z,99193.50
2023-04-05T03:43:05.939Z,99191.03
2023-04-05T03:45:08.554Z,99191.03
2023-04-05T03:47:10.871Z,99192.06
2023-04-05T03:49:16.220Z,99190.19
2023-04-05T03:51:20.551Z,99195.59
2023-04-05T03:53:24.873Z,99190.41
2023-04-05T03:55:37.270Z,99188.50
2023-04-05T03:57:41.825Z,99189.56
2023-04-05T03:59:55.693Z,99191.44
2023-04-05T04:01:58.633Z,99186.84
2023-04-05T04:04:00.389Z,99191.44
2023-04-05T04:06:04.384Z,99187.03
2023-04-05T04:08:11.109Z,99181.63
2023-04-05T04:10:16.929Z,99182.69
2023-04-05T04:12:22.351Z,99185.59
2023-04-05T04:14:39.024Z,99187.50
2023-04-05T04:16:50.532Z,99184.13
2023-04-05T04:19:08.102Z,99183.31
2023-04-05T04:21:39.465Z,99188.94
2023-04-05T04:23:58.985Z,99190.00
2023-04-05T04:26:29.145Z,99189.34
2023-04-05T04:28:54.190Z,99190.41
2023-04-05T04:31:07.150Z,99191.25
2023-04-05T04:33:44.068Z,99189.78
2023-04-05T04:35:48.265Z,99198.94
2023-04-05T04:38:07.977Z,99199.78
2023-04-05T04:40:39.274Z,99195.59
2023-04-05T04:42:58.754Z,99197.25
2023-04-05T04:45:21.102Z,99197.03
2023-04-05T04:47:40.110Z,99193.53
2023-04-05T04:50:04.997Z,99196.44
2023-04-05T04:52:06.500Z,99203.50
2023-04-05T04:54:07.989Z,99204.53
2023-04-05T04:56:10.163Z,99200.19
2023-04-05T04:58:13.349Z,99203.69
2023-04-05T05:00:18.106Z,99202.91
2023-04-05T05:02:32.134Z,99200.38
2023-04-05T05:04:37.149Z,99208.50
2023-04-05T05:06:38.956Z,99202.25
2023-04-05T05:08:40.553Z,99205.78
2023-04-05T05:10:42.773Z,99206.00
2023-04-05T05:12:45.285Z,99211.41
2023-04-05T05:14:50.690Z,99209.56
2023-04-05T05:16:54.673Z,99210.38
2023-04-05T05:18:56.251Z,99210.38
2023-04-05T05:21:02.001Z,99209.56
2023-04-05T05:23:05.327Z,99211.19
2023-04-05T05:25:08.654Z,99214.13
2023-04-05T05:27:10.203Z,99219.31
2023-04-05T05:29:11.740Z,99217.47
2023-04-05T05:31:17.950Z,99224.56
2023-04-05T05:33:19.764Z,99226.41
2023-04-05T05:35:21.583Z,99218.06
2023-04-05T05:37:32.211Z,99221.84
2023-04-05T05:39:33.716Z,99224.09
2023-04-05T05:41:35.464Z,99220.38
2023-04-05T05:43:36.877Z,99218.28
2023-04-05T05:45:38.428Z,99223.50
2023-04-05T05:47:40.033Z,99222.47
2023-04-05T05:49:41.648Z,99223.28
2023-04-05T05:51:46.409Z,99223.91
2023-04-05T05:53:48.020Z,99217.47
2023-04-05T05:55:49.667Z,99217.47
2023-04-05T05:57:52.914Z,99222.25
2023-04-05T05:59:57.214Z,99227.44
2023-04-05T06:02:01.847Z,99225.19
2023-04-05T06:04:08.995Z,99222.91
2023-04-05T06:06:11.188Z,99220.81
2023-04-05T06:08:12.764Z,99224.34
2023-04-05T06:10:15.441Z,99232.88
2023-04-05T06:12:17.113Z,99226.22
2023-04-05T06:14:18.896Z,99234.75
2023-04-05T06:16:21.453Z,99232.69
2023-04-05T06:18:22.925Z,99232.25
2023-04-05T06:20:28.554Z,99232.69
2023-04-05T06:22:30.190Z,99236.41
2023-04-05T06:24:32.256Z,99233.28
2023-04-05T06:26:34.173Z,99224.75
2023-04-05T06:28:36.027Z,99232.84
2023-04-05T06:30:37.766Z,99219.50
2023-04-05T06:32:39.256Z,99225.97
2023-04-05T06:34:48.254Z,99230.56
2023-04-05T06:36:50.110Z,99221.56
2023-04-05T06:38:52.497Z,99234.28
2023-04-05T06:40:53.984Z,99219.88
2023-04-05T06:42:55.473Z,99218.81
2023-04-05T06:45:04.214Z,99217.94
2023-04-05T06:47:08.848Z,99224.56
2023-04-05T06:49:10.355Z,99216.59
2023-04-05T06:51:11.791Z,99220.72
2023-04-05T06:53:18.284Z,99223.78
2023-04-05T06:55:21.729Z,99226.88
2023-04-05T06:57:24.333Z,99225.97
2023-04-05T06:59:27.698Z,99221.53
2023-04-05T07:01:29.518Z,99217.88
2023-04-05T07:03:31.157Z,99210.91
2023-04-05T07:05:33.045Z,99222.53
2023-04-05T07:07:42.402Z,99222.41
2023-04-05T07:09:43.922Z,99216.19
2023-04-05T07:11:45.757Z,99200.13
2023-04-05T07:13:47.704Z,99210.66
2023-04-05T07:15:53.193Z,99209.22
2023-04-05T07:17:54.775Z,99195.19
2023-04-05T07:19:56.388Z,99198.34
2023-04-05T07:21:59.270Z,99200.69
2023-04-05T07:24:01.982Z,99197.53
2023-04-05T07:26:07.972Z,99190.00
2023-04-05T07:28:09.991Z,99194.44
2023-04-05T07:30:12.812Z,99181.44
2023-04-05T07:32:16.914Z,99186.09
2023-04-05T07:34:18.561Z,99191.06
2023-04-05T07:36:20.514Z,99191.06
2023-04-05T07:38:22.405Z,99182.31
2023-04-05T07:40:23.997Z,99189.63
2023-04-05T07:42:26.032Z,99189.63
2023-04-05T07:44:27.587Z,99184.16
2023-04-05T07:46:29.983Z,99185.22
2023-04-05T07:48:31.708Z,99192.28
2023-04-05T07:50:34.653Z,99190.34
2023-04-05T07:52:36.505Z,99195.84
2023-04-05T07:54:39.646Z,99190.31
2023-04-05T07:56:44.005Z,99189.44
2023-04-05T07:58:45.612Z,99186.66
2023-04-05T08:00:47.172Z,99186.84
2023-04-05T08:02:48.734Z,99193.06
2023-04-05T08:04:50.565Z,99183.97
2023-04-05T08:06:52.676Z,99188.78
2023-04-05T08:08:54.240Z,99188.69
2023-04-05T08:10:55.810Z,99190.53
2023-04-05T08:12:57.278Z,99195.91
2023-04-05T08:14:58.742Z,99194.97
2023-04-05T08:17:00.395Z,99179.53
2023-04-05T08:19:02.162Z,99187.66
2023-04-05T08:21:03.691Z,99189.47
2023-04-05T08:23:05.707Z,99181.97
2023-04-05T08:25:07.985Z,99175.78
2023-04-05T08:27:09.648Z,99177.09
2023-04-05T08:29:13.941Z,99174.19
2023-04-05T08:31:15.524Z,99178.44
2023-04-05T08:33:17.106Z,99177.22
2023-04-05T08:35:18.660Z,99168.25
2023-04-05T08:37:20.360Z,99164.81
2023-04-05T08:39:24.096Z,99175.63
2023-04-05T08:41:30.013Z,99173.00
2023-04-05T08:43:45.313Z,99162.94
2023-04-05T08:45:50.680Z,99175.41
2023-04-05T08:47:54.099Z,99177.16
2023-04-05T08:49:57.329Z,99169.53
2023-04-05T08:52:01.047Z,99168.78
2023-04-05T08:54:04.884Z,99162.50
2023-04-05T08:56:07.342Z,99166.44
2023-04-05T08:58:13.834Z,99167.03
2023-04-05T09:00:16.805Z,99164.31
2023-04-05T09:02:22.920Z,99172.88
2023-04-05T09:04:31.306Z,99166.66
2023-04-05T09:06:35.505Z,99160.09
2023-04-05T09:08:38.770Z,99168.66
2023-04-05T09:10:41.150Z,99160.13
2023-04-05T09:12:42.897Z,99161.81
2023-04-05T09:14:44.794Z,99163.50
2023-04-05T09:16:47.471Z,99161.84
2023-04-05T09:18:49.240Z,99164.63
2023-04-05T09:20:50.957Z,99163.53
2023-04-05T09:22:52.824Z,99163.56
2023-04-05T09:24:57.352Z,99157.47
2023-04-05T09:27:09.468Z,99153.09
2023-04-05T09:29:30.886Z,99153.13
2023-04-05T09:31:36.056Z,99158.09
2023-04-05T09:33:43.275Z,99156.97
2023-04-05T09:35:44.936Z,99153.41
2023-04-05T09:37:54.555Z,99165.25
2023-04-05T09:40:06.839Z,99157.84
2023-04-05T09:42:11.750Z,99151.78
2023-04-05T09:44:15.324Z,99148.22
2023-04-05T09:46:47.348Z,99146.53
2023-04-05T09:48:50.035Z,99147.38
2023-04-05T09:50:51.487Z,99144.63
2023-04-05T09:53:06.754Z,99139.94
2023-04-05T09:55:09.586Z,99154.81
2023-04-05T09:57:11.121Z,99149.31
2023-04-05T09:59:14.155Z,99150.13
2023-04-05T10:01:17.179Z,99150.41
2023-04-05T10:03:22.264Z,99151.78
2023-04-05T10:05:33.813Z,99147.66
2023-04-05T10:07:38.625Z,99149.28
2023-04-05T10:09:41.626Z,99146.00
2023-04-05T10:11:45.148Z,99152.63
2023-04-05T10:13:49.178Z,99141.34
2023-04-05T10:15:53.667Z,99146.00
2023-04-05T10:18:13.059Z,99142.16
2023-04-05T10:20:18.252Z,99139.94
2023-04-05T10:22:32.230Z,99139.94
2023-04-05T10:25:03.200Z,99142.69
2023-04-05T10:27:11.459Z,99134.72
2023-04-05T10:29:19.779Z,99126.13
2023-04-05T10:31:51.219Z,99124.47
2023-04-05T10:34:06.150Z,99119.44
2023-04-05T10:36:39.971Z,99121.03
2023-04-05T10:39:02.424Z,99122.16
2023-04-05T10:41:10.290Z,99119.94
2023-04-05T10:43:17.613Z,99123.25
2023-04-05T10:45:22.288Z,99112.56
2023-04-05T10:47:26.847Z,99116.72
2023-04-05T10:49:42.605Z,99120.59
2023-04-05T10:51:44.228Z,99115.94
2023-04-05T10:53:48.032Z,99122.56
2023-04-05T10:55:52.252Z,99118.72
2023-04-05T10:57:54.879Z,99118.44
2023-04-05T10:59:57.154Z,99125.63
2023-04-05T11:01:59.062Z,99115.69
2023-04-05T11:04:12.837Z,99119.25
2023-04-05T11:06:29.898Z,99109.34
2023-04-05T11:08:32.219Z,99120.03
2023-04-05T11:10:39.123Z,99115.03
2023-04-05T11:12:46.900Z,99111.97
2023-04-05T11:14:48.415Z,99104.47
2023-04-05T11:16:59.971Z,99104.19
2023-04-05T11:19:01.738Z,99098.31
2023-04-05T11:21:08.146Z,99097.72
2023-04-05T11:23:14.477Z,99105.94
2023-04-05T11:25:24.753Z,99099.53
2023-04-05T11:27:34.108Z,99097.25
2023-04-05T11:29:52.195Z,99100.22
2023-04-05T11:32:08.009Z,99089.09
2023-04-05T11:34:12.589Z,99085.16
2023-04-05T11:36:36.913Z,99084.25
2023-04-05T11:38:41.023Z,99085.00
2023-04-05T11:40:43.573Z,99084.06
2023-04-05T11:42:45.481Z,99082.31
2023-04-05T11:44:49.081Z,99071.75
2023-04-05T11:46:51.945Z,99076.09
2023-04-05T11:48:53.457Z,99063.06
2023-04-05T11:50:57.070Z,99066.88
2023-04-05T11:53:11.939Z,99067.94
2023-04-05T11:55:13.585Z,99064.81
2023-04-05T11:57:20.851Z,99061.97
2023-04-05T11:59:29.437Z,99067.44
2023-04-05T12:01:31.465Z,99063.78
2023-04-05T12:03:34.602Z,99049.09
2023-04-05T12:05:46.703Z,99058.47
2023-04-05T12:07:54.470Z,99060.34
2023-04-05T12:10:11.120Z,99052.59
2023-04-05T12:12:18.793Z,99049.78
2023-04-05T12:14:23.734Z,99049.16
2023-04-05T12:16:26.023Z,99046.31
2023-04-05T12:18:28.873Z,99049.84
2023-04-05T12:20:30.845Z,99047.00
2023-04-05T12:22:32.480Z,99044.16
2023-04-05T12:24:34.237Z,99044.09
2023-04-05T12:26:36.006Z,99040.72
2023-04-05T12:28:57.272Z,99041.56
2023-04-05T12:30:59.958Z,99047.53
2023-04-05T12:33:09.620Z,99031.16
2023-04-05T12:35:44.754Z,99037.72
2023-04-05T12:37:50.724Z,99049.56
2023-04-05T12:39:54.638Z,99036.22
2023-04-05T12:42:02.412Z,99032.84
2023-04-05T12:44:15.657Z,99027.31
2023-04-05T12:46:18.090Z,99031.13
2023-04-05T12:48:25.883Z,99024.16
2023-04-05T12:50:29.685Z,99017.50
2023-04-05T12:52:31.104Z,99013.84
2023-04-05T12:54:34.836Z,99017.13
2023-04-05T12:56:38.824Z,99001.31
2023-04-05T12:58:40.708Z,99001.59
2023-04-05T13:00:42.276Z,98995.72
2023-04-05T13:02:43.811Z,98998.19
2023-04-05T13:04:47.501Z,99005.91
2023-04-05T13:06:51.393Z,98999.25
2023-04-05T13:08:52.911Z,99000.59
2023-04-05T13:10:57.209Z,98998.31
2023-04-05T13:12:59.944Z,98995.25
2023-04-05T13:15:01.744Z,98997.41
2023-04-05T13:17:05.602Z,98986.03
2023-04-05T13:19:09.792Z,98985.72
2023-04-05T13:21:11.680Z,98974.31
2023-04-05T13:23:13.831Z,98971.28
2023-04-05T13:25:15.995Z,98960.69
2023-04-05T13:27:17.634Z,98975.88
2023-04-05T13:29:19.162Z,98968.41
2023-04-05T13:31:23.481Z,98974.97
2023-04-05T13:33:25.020Z,98969.31
2023-04-05T13:35:28.665Z,98966.56
2023-04-05T13:37:30.598Z,98964.84
2023-04-05T13:39:32.156Z,98965.34
2023-04-05T13:41:33.575Z,98957.84
2023-04-05T13:43:35.542Z,98957.53
2023-04-05T13:45:39.172Z,98958.88
2023-04-05T13:47:40.967Z,98958.59
2023-04-05T13:49:45.667Z,98949.13
2023-04-05T13:51:47.530Z,98948.28
2023-04-05T13:53:50.437Z,98945.84
2023-04-05T13:55:51.889Z,98951.72
2023-04-05T13:57:53.565Z,98954.75
2023-04-05T13:59:58.392Z,98948.41
2023-04-05T14:02:00.216Z,98943.69
2023-04-05T14:04:02.348Z,98942.16
2023-04-05T14:06:04.295Z,98938.97
2023-04-05T14:08:05.984Z,98939.88
2023-04-05T14:10:07.887Z,98940.81
2023-04-05T14:12:09.459Z,98945.34
2023-04-05T14:14:11.004Z,98935.69
2023-04-05T14:16:13.883Z,98941.53
2023-04-05T14:18:15.846Z,98938.84
2023-04-05T14:20:20.353Z,98933.41
2023-04-05T14:22:22.179Z,98933.50
2023-04-05T14:24:23.704Z,98932.78
2023-04-05T14:26:28.633Z,98925.41
2023-04-05T14:28:30.347Z,98929.59
2023-04-05T14:30:32.841Z,98918.63
2023-04-05T14:32:34.982Z,98934.50
2023-04-05T14:34:36.648Z,98925.50
2023-04-05T14:36:38.482Z,98919.47
2023-04-05T14:38:42.781Z,98917.63
2023-04-05T14:40:44.640Z,98928.28
2023-04-05T14:42:55.118Z,98922.31
2023-04-05T14:44:56.604Z,98916.38
2023-04-05T14:46:58.295Z,98913.22
2023-04-05T14:48:59.854Z,98910.84
2023-04-05T14:51:01.455Z,98905.19
2023-04-05T14:53:03.333Z,98912.75
2023-04-05T14:55:04.976Z,98909.25
2023-04-05T14:57:08.465Z,98907.97
2023-04-05T14:59:09.925Z,98899.78
2023-04-05T15:01:11.600Z,98896.00
2023-04-05T15:03:13.334Z,98899.66
2023-04-05T15:05:15.013Z,98902.25
2023-04-05T15:07:17.330Z,98900.97
2023-04-05T15:09:20.970Z,98904.72
2023-04-05T15:11:25.993Z,98897.09
2023-04-05T15:13:27.580Z,98893.03
2023-04-05T15:15:29.061Z,98893.72
2023-04-05T15:17:30.575Z,98904.28
2023-04-05T15:19:32.092Z,98900.78
2023-04-05T15:21:36.524Z,98900.31
2023-04-05T15:23:38.006Z,98891.56
2023-04-05T15:25:39.506Z,98894.94
2023-04-05T15:27:41.081Z,98894.78
2023-04-05T15:29:42.503Z,98889.88
2023-04-05T15:31:44.285Z,98896.34
2023-04-05T15:33:46.266Z,98900.03
2023-04-05T15:35:50.268Z,98902.28
2023-04-05T15:37:51.860Z,98902.13
2023-04-05T15:39:53.339Z,98897.22
2023-04-05T15:41:57.402Z,98891.78
2023-04-05T15:43:59.048Z,98893.25
2023-04-05T15:46:00.717Z,98893.03
2023-04-05T15:48:02.280Z,98892.50
2023-04-05T15:50:04.175Z,98899.44
2023-04-05T15:52:05.675Z,98897.59
2023-04-05T15:54:07.272Z,98894.34
2023-04-05T15:56:08.919Z,98893.81
2023-04-05T15:58:10.584Z,98898.00
2023-04-05T16:00:14.885Z,98893.38
2023-04-05T16:02:26.388Z,98883.78
2023-04-05T16:04:28.114Z,98888.78
2023-04-05T16:06:29.829Z,98890.50
2023-04-05T16:08:31.581Z,98894.91
2023-04-05T16:10:33.344Z,98887.44
2023-04-05T16:12:34.882Z,98897.13
2023-04-05T16:14:36.757Z,98891.13
2023-04-05T16:16:50.086Z,98891.97
2023-04-05T16:18:54.210Z,98887.81
2023-04-05T16:20:56.318Z,98891.72
2023-04-05T16:22:58.016Z,98887.63
2023-04-05T16:24:59.459Z,98890.09
2023-04-05T16:27:03.900Z,98882.97
2023-04-05T16:29:05.733Z,98894.25
2023-04-05T16:31:07.366Z,98884.09
2023-04-05T16:33:10.184Z,98883.03
2023-04-05T16:35:14.045Z,98889.63
2023-04-05T16:37:15.490Z,98891.28
2023-04-05T16:39:17.018Z,98895.97
2023-04-05T16:41:18.615Z,98899.00
2023-04-05T16:43:20.583Z,98893.50
2023-04-05T16:45:22.701Z,98888.28
2023-04-05T16:47:25.744Z,98892.72
2023-04-05T16:49:29.332Z,98897.38
2023-04-05T16:51:31.595Z,98896.25
2023-04-05T16:53:33.109Z,98908.09
2023-04-05T16:55:34.554Z,98896.25
2023-04-05T16:57:36.197Z,98904.50
2023-04-05T16:59:37.657Z,98901.22
2023-04-05T17:01:39.426Z,98897.38
2023-04-05T17:03:42.180Z,98906.16
2023-04-05T17:05:44.463Z,98911.91
2023-04-05T17:07:46.749Z,98902.84
2023-04-05T17:09:48.584Z,98913.81
2023-04-05T17:11:50.411Z,98913.25
2023-04-05T17:13:51.887Z,98907.19
2023-04-05T17:15:53.497Z,98910.78
2023-04-05T17:17:55.251Z,98905.56
2023-04-05T17:19:56.728Z,98908.00
2023-04-05T17:22:00.275Z,98909.41
2023-04-05T17:24:04.135Z,98904.44
2023-04-05T17:26:05.894Z,98912.13
2023-04-05T17:28:07.494Z,98905.25
2023-04-05T17:30:09.618Z,98900.84
2023-04-05T17:32:11.151Z,98906.09
2023-04-05T17:34:16.912Z,98914.56
2023-04-05T17:36:19.575Z,98905.78
2023-04-05T17:38:24.825Z,98910.16
2023-04-05T17:40:26.475Z,98909.31
2023-04-05T17:42:28.036Z,98906.56
2023-04-05T17:44:30.454Z,98911.75
2023-04-05T17:46:42.615Z,98910.09
2023-04-05T17:48:49.903Z,98912.84
2023-04-05T17:50:51.590Z,98908.16
2023-04-05T17:52:55.906Z,98910.06
2023-04-05T17:54:57.436Z,98917.97
2023-04-05T17:56:58.852Z,98910.84
2023-04-05T17:59:03.907Z,98918.75
2023-04-05T18:01:05.920Z,98915.16
2023-04-05T18:03:08.588Z,98919.53
2023-04-05T18:05:10.549Z,98915.94
2023-04-05T18:07:12.526Z,98913.44
2023-04-05T18:09:14.116Z,98916.94
2023-04-05T18:11:15.704Z,98912.25
2023-04-05T18:13:17.953Z,98918.78
2023-04-05T18:15:20.673Z,98919.59
2023-04-05T18:17:22.354Z,98925.31
2023-04-05T18:19:24.023Z,98928.03
2023-04-05T18:21:25.772Z,98924.41
2023-04-05T18:23:27.672Z,98927.38
2023-04-05T18:25:29.633Z,98929.78
2023-04-05T18:27:34.991Z,98926.44
2023-04-05T18:29:40.153Z,98934.31
2023-04-05T18:31:41.989Z,98932.63
2023-04-05T18:33:43.675Z,98935.84
2023-04-05T18:35:49.474Z,98935.22
2023-04-05T18:37:51.159Z,98948.88
2023-04-05T18:39:52.583Z,98941.13
2023-04-05T18:41:54.947Z,98949.28
2023-04-05T18:43:57.301Z,98944.25
2023-04-05T18:45:59.151Z,98944.19
2023-04-05T18:48:00.696Z,98938.91
2023-04-05T18:50:03.619Z,98947.28
2023-04-05T18:52:05.261Z,98951.78
2023-04-05T18:54:06.953Z,98949.44
2023-04-05T18:56:09.408Z,98949.31
2023-04-05T18:58:11.100Z,98955.47
2023-04-05T19:00:12.941Z,98951.28
2023-04-05T19:02:14.547Z,98947.59
2023-04-05T19:04:16.502Z,98946.63
2023-04-05T19:06:18.497Z,98958.25
2023-04-05T19:08:20.207Z,98957.00
2023-04-05T19:10:24.050Z,98957.13
2023-04-05T19:12:25.873Z,98957.31
2023-04-05T19:14:27.421Z,98963.41
2023-04-05T19:16:35.874Z,98964.94
2023-04-05T19:18:37.438Z,98962.88
2023-04-05T19:20:38.950Z,98960.25
2023-04-05T19:22:40.988Z,98963.06
2023-04-05T19:24:42.645Z,98969.50
2023-04-05T19:26:47.352Z,98968.84
2023-04-05T19:28:49.088Z,98965.69
2023-04-05T19:30:53.377Z,98970.94
2023-04-05T19:32:56.657Z,98974.41
2023-04-05T19:34:59.687Z,98966.13
2023-04-05T19:37:01.210Z,98971.75
2023-04-05T19:39:06.607Z,98968.56
2023-04-05T19:41:08.313Z,98968.72
2023-04-05T19:43:12.732Z,98972.69
2023-04-05T19:45:26.543Z,98969.00
2023-04-05T19:47:28.373Z,98970.47
2023-04-05T19:49:39.141Z,98968.22
2023-04-05T19:51:42.495Z,98971.09
2023-04-05T19:53:48.073Z,98970.63
2023-04-05T19:55:49.625Z,98960.34
2023-04-05T19:57:51.662Z,98967.56
2023-04-05T19:59:53.147Z,98968.56
2023-04-05T20:01:54.971Z,98973.00
2023-04-05T20:03:56.519Z,98966.88
2023-04-05T20:06:15.767Z,98961.53
2023-04-05T20:08:18.742Z,98968.16
2023-04-05T20:10:51.336Z,98973.81
2023-04-05T20:12:53.025Z,98964.72
2023-04-05T20:14:55.641Z,98959.63
2023-04-05T20:16:58.357Z,98963.28
2023-04-05T20:19:08.793Z,98963.63
2023-04-05T20:21:11.619Z,98970.59
2023-04-05T20:23:18.323Z,98961.47
2023-04-05T20:25:39.823Z,98959.69
2023-04-05T20:27:41.418Z,98962.44
2023-04-05T20:29:42.981Z,98966.66
2023-04-05T20:31:44.696Z,98967.94
2023-04-05T20:34:13.109Z,98961.53
2023-04-05T20:36:20.578Z,98965.22
2023-04-05T20:38:22.604Z,98964.00
2023-04-05T20:40:24.797Z,98966.56
2023-04-05T20:42:26.267Z,98967.53
2023-04-05T20:44:28.793Z,98968.44
2023-04-05T20:46:30.653Z,98962.63
2023-04-05T20:48:33.950Z,98963.56
2023-04-05T20:50:36.108Z,98966.97
2023-04-05T20:52:37.804Z,98965.75
2023-04-05T20:54:39.231Z,98967.72
2023-04-05T20:56:41.116Z,98962.97
2023-04-05T20:58:42.709Z,98959.28
2023-04-05T21:00:44.179Z,98959.97
2023-04-05T21:02:46.029Z,98961.13
2023-04-05T21:04:49.410Z,98958.25
2023-04-05T21:06:50.968Z,98966.69
2023-04-05T21:08:52.409Z,98964.44
2023-04-05T21:10:54.233Z,98967.16
2023-04-05T21:12:55.825Z,98962.16
2023-04-05T21:15:00.415Z,98968.03
2023-04-05T21:17:03.257Z,98959.75
2023-04-05T21:19:04.672Z,98968.78
2023-04-05T21:21:06.304Z,98955.66
2023-04-05T21:23:07.906Z,98968.22
2023-04-05T21:25:09.601Z,98962.03
2023-04-05T21:27:11.060Z,98964.59
2023-04-05T21:29:14.204Z,98960.69
2023-04-05T21:31:15.921Z,98961.13
2023-04-05T21:33:17.754Z,98961.22
2023-04-05T21:35:20.984Z,98967.91
2023-04-05T21:37:22.445Z,98968.34
2023-04-05T21:39:25.290Z,98969.81
2023-04-05T21:41:30.073Z,98965.06
2023-04-05T21:43:31.943Z,98965.50
2023-04-05T21:45:38.719Z,98979.16
2023-04-05T21:47:40.377Z,98984.16
2023-04-05T21:49:44.656Z,98979.19
2023-04-05T21:51:46.149Z,98976.53
2023-04-05T21:53:47.973Z,98975.09
2023-04-05T21:55:49.405Z,98977.41
2023-04-05T21:57:54.201Z,98980.56
2023-04-05T21:59:55.920Z,98973.06
2023-04-05T22:01:57.691Z,98977.06
2023-04-05T22:03:59.288Z,98986.47
2023-04-05T22:06:01.792Z,98978.78
2023-04-05T22:08:03.376Z,98984.41
2023-04-05T22:10:05.648Z,98987.78
2023-04-05T22:12:07.224Z,98986.94
2023-04-05T22:14:09.418Z,98975.09
2023-04-05T22:16:11.189Z,98979.91
2023-04-05T22:18:13.394Z,98978.28
2023-04-05T22:20:14.954Z,98971.59
2023-04-05T22:22:17.177Z,98981.00
2023-04-05T22:24:21.888Z,98980.41
2023-04-05T22:26:48.265Z,98984.97
2023-04-05T22:28:49.750Z,98977.91
2023-04-05T22:30:51.818Z,98984.59
2023-04-05T22:32:53.386Z,98977.75
2023-04-05T22:35:00.694Z,98981.47
2023-04-05T22:37:02.265Z,98978.16
2023-04-05T22:39:03.770Z,98980.88
2023-04-05T22:41:05.339Z,98974.84
2023-04-05T22:43:11.727Z,98977.97
2023-04-05T22:45:13.439Z,98975.69
2023-04-05T22:47:14.969Z,98980.94
2023-04-05T22:49:16.636Z,98977.63
2023-04-05T22:51:18.346Z,98976.16
2023-04-05T22:53:22.698Z,98984.72
2023-04-05T22:55:24.306Z,98978.47
2023-04-05T22:57:25.976Z,98983.28
2023-04-05T22:59:27.564Z,98980.78
2023-04-05T23:01:29.227Z,98978.50
2023-04-05T23:03:31.181Z,98979.53
2023-04-05T23:05:35.988Z,98989.53
2023-04-05T23:07:40.068Z,98987.28
2023-04-05T23:09:41.712Z,98983.31
2023-04-05T23:11:43.366Z,98986.03
2023-04-05T23:13:44.941Z,98982.94
2023-04-05T23:15:46.547Z,98981.50
2023-04-05T23:17:49.597Z,98985.44
2023-04-05T23:19:51.533Z,98982.34
2023-04-05T23:21:53.716Z,98983.59
2023-04-05T23:23:55.593Z,98991.91
2023-04-05T23:25:57.109Z,98984.25
2023-04-05T23:27:58.618Z,98983.59
2023-04-05T23:30:03.148Z,98989.25
2023-04-05T23:32:07.493Z,98986.97
2023-04-05T23:34:11.236Z,98987.19
2023-04-05T23:36:14.936Z,98987.38
2023-04-05T23:38:16.589Z,98987.00
2023-04-05T23:40:18.028Z,98989.69
2023-04-05T23:42:19.623Z,98992.81
2023-04-05T23:44:21.263Z,98991.59
2023-04-05T23:46:22.980Z,98991.41
2023-04-05T23:48:27.496Z,98991.41
2023-04-05T23:50:28.943Z,98993.47
2023-04-05T23:52:30.476Z,98982.84
2023-04-05T23:54:35.025Z,98992.44
2023-04-05T23:56:36.578Z,98983.50
2023-04-05T23:58:38.015Z,98985.59
